sensor_id;sensor_type;location;lat;lon;timestamp;temperature;humidity
22923;DHT22;11627;51.322;22.816;2023-02-11T00:00:17;1.10;99.90
22923;DHT22;11627;51.322;22.816;2023-02-11T00:02:43;1.10;99.90
22923;DHT22;11627;51.322;22.816;2023-02-11T00:05:09;1.10;99.90
22923;DHT22;11627;51.322;22.816;2023-02-11T00:07:35;1.10;99.90
22923;DHT22;11627;51.322;22.816;2023-02-11T00:10:01;1.10;99.90
22923;DHT22;11627;51.322;22.816;2023-02-11T00:12:27;1.10;99.90
22923;DHT22;11627;51.322;22.816;2023-02-11T00:14:53;1.10;99.90
22923;DHT22;11627;51.322;22.816;2023-02-11T00:17:19;1.10;99.90
22923;DHT22;11627;51.322;22.816;2023-02-11T00:19:48;1.10;99.90
22923;DHT22;11627;51.322;22.816;2023-02-11T00:22:15;1.10;99.90
22923;DHT22;11627;51.322;22.816;2023-02-11T00:24:41;1.10;99.90
22923;DHT22;11627;51.322;22.816;2023-02-11T00:27:08;1.10;99.90
22923;DHT22;11627;51.322;22.816;2023-02-11T00:29:34;1.00;99.90
22923;DHT22;11627;51.322;22.816;2023-02-11T00:32:00;1.10;99.90
22923;DHT22;11627;51.322;22.816;2023-02-11T00:34:33;1.10;99.90
22923;DHT22;11627;51.322;22.816;2023-02-11T00:37:00;1.10;99.90
22923;DHT22;11627;51.322;22.816;2023-02-11T00:39:26;1.00;99.90
22923;DHT22;11627;51.322;22.816;2023-02-11T00:41:53;1.10;99.90
22923;DHT22;11627;51.322;22.816;2023-02-11T00:44:19;1.00;99.90
22923;DHT22;11627;51.322;22.816;2023-02-11T00:46:46;1.00;99.90
22923;DHT22;11627;51.322;22.816;2023-02-11T00:49:12;0.90;99.90
22923;DHT22;11627;51.322;22.816;2023-02-11T00:51:38;1.00;99.90
22923;DHT22;11627;51.322;22.816;2023-02-11T00:54:04;1.00;99.90
22923;DHT22;11627;51.322;22.816;2023-02-11T00:56:30;1.00;99.90
22923;DHT22;11627;51.322;22.816;2023-02-11T00:58:56;1.10;99.90
22923;DHT22;11627;51.322;22.816;2023-02-11T01:01:21;1.00;99.90
22923;DHT22;11627;51.322;22.816;2023-02-11T01:03:47;1.00;99.90
22923;DHT22;11627;51.322;22.816;2023-02-11T01:06:12;1.00;99.90
22923;DHT22;11627;51.322;22.816;2023-02-11T01:08:38;1.00;99.90
22923;DHT22;11627;51.322;22.816;2023-02-11T01:11:13;0.90;99.90
22923;DHT22;11627;51.322;22.816;2023-02-11T01:13:38;1.00;99.90
22923;DHT22;11627;51.322;22.816;2023-02-11T01:16:08;0.90;99.90
22923;DHT22;11627;51.322;22.816;2023-02-11T01:18:34;0.90;99.90
22923;DHT22;11627;51.322;22.816;2023-02-11T01:21:00;0.90;99.90
22923;DHT22;11627;51.322;22.816;2023-02-11T01:23:26;0.90;99.90
22923;DHT22;11627;51.322;22.816;2023-02-11T01:25:52;0.90;99.90
22923;DHT22;11627;51.322;22.816;2023-02-11T01:28:22;0.90;99.90
22923;DHT22;11627;51.322;22.816;2023-02-11T01:30:48;0.90;99.90
22923;DHT22;11627;51.322;22.816;2023-02-11T01:33:16;0.90;99.90
22923;DHT22;11627;51.322;22.816;2023-02-11T01:35:42;0.90;99.90
22923;DHT22;11627;51.322;22.816;2023-02-11T01:38:14;0.90;99.90
22923;DHT22;11627;51.322;22.816;2023-02-11T01:40:50;0.90;99.90
22923;DHT22;11627;51.322;22.816;2023-02-11T01:43:17;0.90;99.90
22923;DHT22;11627;51.322;22.816;2023-02-11T01:48:21;0.90;99.90
22923;DHT22;11627;51.322;22.816;2023-02-11T01:50:51;0.90;99.90
22923;DHT22;11627;51.322;22.816;2023-02-11T01:53:18;1.00;99.90
22923;DHT22;11627;51.322;22.816;2023-02-11T01:56:04;1.00;99.90
22923;DHT22;11627;51.322;22.816;2023-02-11T01:58:50;1.00;99.90
22923;DHT22;11627;51.322;22.816;2023-02-11T02:01:23;1.00;99.90
22923;DHT22;11627;51.322;22.816;2023-02-11T02:03:51;1.00;99.90
22923;DHT22;11627;51.322;22.816;2023-02-11T02:06:26;1.00;99.90
22923;DHT22;11627;51.322;22.816;2023-02-11T02:08:59;1.00;99.90
22923;DHT22;11627;51.322;22.816;2023-02-11T02:11:26;1.00;99.90
22923;DHT22;11627;51.322;22.816;2023-02-11T02:13:52;1.00;99.90
22923;DHT22;11627;51.322;22.816;2023-02-11T02:16:20;0.90;99.90
22923;DHT22;11627;51.322;22.816;2023-02-11T02:22:17;1.00;99.90
22923;DHT22;11627;51.322;22.816;2023-02-11T02:25:08;1.00;99.90
22923;DHT22;11627;51.322;22.816;2023-02-11T02:33:29;0.90;99.90
22923;DHT22;11627;51.322;22.816;2023-02-11T02:36:13;1.00;99.90
22923;DHT22;11627;51.322;22.816;2023-02-11T02:39:00;1.00;99.90
22923;DHT22;11627;51.322;22.816;2023-02-11T02:41:30;1.00;99.90
22923;DHT22;11627;51.322;22.816;2023-02-11T02:43:56;1.10;99.90
22923;DHT22;11627;51.322;22.816;2023-02-11T02:46:28;1.00;99.90
22923;DHT22;11627;51.322;22.816;2023-02-11T02:48:56;1.00;99.90
22923;DHT22;11627;51.322;22.816;2023-02-11T02:51:51;1.00;99.90
22923;DHT22;11627;51.322;22.816;2023-02-11T02:55:00;1.00;99.90
22923;DHT22;11627;51.322;22.816;2023-02-11T03:03:43;1.00;99.90
22923;DHT22;11627;51.322;22.816;2023-02-11T03:09:06;1.00;99.90
22923;DHT22;11627;51.322;22.816;2023-02-11T03:11:35;0.90;99.90
22923;DHT22;11627;51.322;22.816;2023-02-11T03:14:02;0.90;99.90
22923;DHT22;11627;51.322;22.816;2023-02-11T03:16:29;0.90;99.90
22923;DHT22;11627;51.322;22.816;2023-02-11T03:19:05;0.90;99.90
22923;DHT22;11627;51.322;22.816;2023-02-11T03:21:33;0.90;99.90
22923;DHT22;11627;51.322;22.816;2023-02-11T03:24:06;0.90;99.90
22923;DHT22;11627;51.322;22.816;2023-02-11T03:26:45;0.90;99.90
22923;DHT22;11627;51.322;22.816;2023-02-11T03:29:39;0.90;99.90
22923;DHT22;11627;51.322;22.816;2023-02-11T03:32:22;1.00;99.30
22923;DHT22;11627;51.322;22.816;2023-02-11T03:35:19;0.90;98.70
22923;DHT22;11627;51.322;22.816;2023-02-11T03:38:05;0.90;95.90
22923;DHT22;11627;51.322;22.816;2023-02-11T03:40:35;1.00;95.30
22923;DHT22;11627;51.322;22.816;2023-02-11T03:43:25;0.90;94.50
22923;DHT22;11627;51.322;22.816;2023-02-11T03:45:54;0.90;94.60
22923;DHT22;11627;51.322;22.816;2023-02-11T03:48:36;0.90;94.00
22923;DHT22;11627;51.322;22.816;2023-02-11T03:51:06;0.90;93.90
22923;DHT22;11627;51.322;22.816;2023-02-11T03:53:32;0.80;92.60
22923;DHT22;11627;51.322;22.816;2023-02-11T03:56:02;0.90;89.60
22923;DHT22;11627;51.322;22.816;2023-02-11T03:58:29;1.00;86.30
22923;DHT22;11627;51.322;22.816;2023-02-11T04:00:56;1.00;78.90
22923;DHT22;11627;51.322;22.816;2023-02-11T04:03:22;1.10;76.30
22923;DHT22;11627;51.322;22.816;2023-02-11T04:05:47;1.00;76.30
22923;DHT22;11627;51.322;22.816;2023-02-11T04:08:13;1.00;76.40
22923;DHT22;11627;51.322;22.816;2023-02-11T04:10:39;1.00;76.00
22923;DHT22;11627;51.322;22.816;2023-02-11T04:13:04;0.90;74.30
22923;DHT22;11627;51.322;22.816;2023-02-11T04:15:30;0.90;75.00
22923;DHT22;11627;51.322;22.816;2023-02-11T04:17:57;0.90;76.10
22923;DHT22;11627;51.322;22.816;2023-02-11T04:20:22;0.80;75.30
22923;DHT22;11627;51.322;22.816;2023-02-11T04:22:48;0.90;73.30
22923;DHT22;11627;51.322;22.816;2023-02-11T04:25:14;0.80;72.40
22923;DHT22;11627;51.322;22.816;2023-02-11T04:27:39;0.90;68.30
22923;DHT22;11627;51.322;22.816;2023-02-11T04:30:07;0.80;67.20
22923;DHT22;11627;51.322;22.816;2023-02-11T04:32:34;0.80;65.90
22923;DHT22;11627;51.322;22.816;2023-02-11T04:35:00;0.80;67.10
22923;DHT22;11627;51.322;22.816;2023-02-11T04:37:26;0.80;64.30
22923;DHT22;11627;51.322;22.816;2023-02-11T04:39:52;0.70;63.30
22923;DHT22;11627;51.322;22.816;2023-02-11T04:42:17;0.70;62.00
22923;DHT22;11627;51.322;22.816;2023-02-11T04:44:43;0.70;61.00
22923;DHT22;11627;51.322;22.816;2023-02-11T04:47:08;0.70;60.30
22923;DHT22;11627;51.322;22.816;2023-02-11T04:49:35;0.70;57.10
22923;DHT22;11627;51.322;22.816;2023-02-11T04:52:02;0.70;54.10
22923;DHT22;11627;51.322;22.816;2023-02-11T04:54:29;0.70;55.00
22923;DHT22;11627;51.322;22.816;2023-02-11T04:56:54;0.70;53.80
22923;DHT22;11627;51.322;22.816;2023-02-11T04:59:20;0.70;52.00
22923;DHT22;11627;51.322;22.816;2023-02-11T05:01:46;0.60;52.40
22923;DHT22;11627;51.322;22.816;2023-02-11T05:04:11;0.60;55.00
22923;DHT22;11627;51.322;22.816;2023-02-11T05:06:38;0.60;53.80
22923;DHT22;11627;51.322;22.816;2023-02-11T05:09:04;0.60;52.10
22923;DHT22;11627;51.322;22.816;2023-02-11T05:11:30;0.60;53.50
22923;DHT22;11627;51.322;22.816;2023-02-11T05:13:55;0.60;54.40
22923;DHT22;11627;51.322;22.816;2023-02-11T05:16:22;0.60;50.00
22923;DHT22;11627;51.322;22.816;2023-02-11T05:18:48;0.70;49.00
22923;DHT22;11627;51.322;22.816;2023-02-11T05:21:17;0.70;47.70
22923;DHT22;11627;51.322;22.816;2023-02-11T05:23:44;0.70;50.70
22923;DHT22;11627;51.322;22.816;2023-02-11T05:26:10;0.70;49.90
22923;DHT22;11627;51.322;22.816;2023-02-11T05:28:37;0.70;48.70
22923;DHT22;11627;51.322;22.816;2023-02-11T05:31:02;0.70;47.00
22923;DHT22;11627;51.322;22.816;2023-02-11T05:33:30;0.70;43.10
22923;DHT22;11627;51.322;22.816;2023-02-11T05:36:04;0.70;45.50
22923;DHT22;11627;51.322;22.816;2023-02-11T05:38:30;0.70;49.30
22923;DHT22;11627;51.322;22.816;2023-02-11T05:40:56;0.70;44.50
22923;DHT22;11627;51.322;22.816;2023-02-11T05:43:22;0.60;43.50
22923;DHT22;11627;51.322;22.816;2023-02-11T05:45:48;0.70;47.30
22923;DHT22;11627;51.322;22.816;2023-02-11T05:48:15;0.60;50.00
22923;DHT22;11627;51.322;22.816;2023-02-11T05:50:41;0.60;50.00
22923;DHT22;11627;51.322;22.816;2023-02-11T05:53:07;0.60;51.10
22923;DHT22;11627;51.322;22.816;2023-02-11T05:55:32;0.60;49.40
22923;DHT22;11627;51.322;22.816;2023-02-11T05:57:58;0.60;49.20
22923;DHT22;11627;51.322;22.816;2023-02-11T06:00:24;0.60;48.00
22923;DHT22;11627;51.322;22.816;2023-02-11T06:02:50;0.60;48.50
22923;DHT22;11627;51.322;22.816;2023-02-11T06:05:15;0.60;49.00
22923;DHT22;11627;51.322;22.816;2023-02-11T06:07:41;0.60;49.60
22923;DHT22;11627;51.322;22.816;2023-02-11T06:10:07;0.60;48.30
22923;DHT22;11627;51.322;22.816;2023-02-11T06:12:35;0.40;48.30
22923;DHT22;11627;51.322;22.816;2023-02-11T06:15:00;0.40;51.70
22923;DHT22;11627;51.322;22.816;2023-02-11T06:17:26;0.40;52.50
22923;DHT22;11627;51.322;22.816;2023-02-11T06:19:55;0.40;52.40
22923;DHT22;11627;51.322;22.816;2023-02-11T06:22:21;0.40;53.90
22923;DHT22;11627;51.322;22.816;2023-02-11T06:24:47;0.30;53.70
22923;DHT22;11627;51.322;22.816;2023-02-11T06:27:12;0.30;48.20
22923;DHT22;11627;51.322;22.816;2023-02-11T06:29:38;0.30;50.10
22923;DHT22;11627;51.322;22.816;2023-02-11T06:32:04;0.30;48.10
22923;DHT22;11627;51.322;22.816;2023-02-11T06:34:29;0.20;49.90
22923;DHT22;11627;51.322;22.816;2023-02-11T06:36:55;0.20;49.90
22923;DHT22;11627;51.322;22.816;2023-02-11T06:39:24;0.30;51.30
22923;DHT22;11627;51.322;22.816;2023-02-11T06:41:49;0.20;51.50
22923;DHT22;11627;51.322;22.816;2023-02-11T06:44:15;0.20;46.80
22923;DHT22;11627;51.322;22.816;2023-02-11T06:46:41;0.20;53.50
22923;DHT22;11627;51.322;22.816;2023-02-11T06:49:06;0.10;53.60
22923;DHT22;11627;51.322;22.816;2023-02-11T06:51:32;0.20;49.00
22923;DHT22;11627;51.322;22.816;2023-02-11T06:53:57;0.10;49.30
22923;DHT22;11627;51.322;22.816;2023-02-11T06:56:24;0.10;42.10
22923;DHT22;11627;51.322;22.816;2023-02-11T06:58:54;0.10;45.20
22923;DHT22;11627;51.322;22.816;2023-02-11T07:01:21;0.20;45.90
22923;DHT22;11627;51.322;22.816;2023-02-11T07:03:49;0.10;43.90
22923;DHT22;11627;51.322;22.816;2023-02-11T07:06:18;0.30;37.40
22923;DHT22;11627;51.322;22.816;2023-02-11T07:08:44;0.20;41.00
22923;DHT22;11627;51.322;22.816;2023-02-11T07:11:21;0.20;42.30
22923;DHT22;11627;51.322;22.816;2023-02-11T07:13:49;0.10;42.30
22923;DHT22;11627;51.322;22.816;2023-02-11T07:16:17;0.10;35.70
22923;DHT22;11627;51.322;22.816;2023-02-11T07:18:43;0.20;35.20
22923;DHT22;11627;51.322;22.816;2023-02-11T07:21:13;0.20;32.90
22923;DHT22;11627;51.322;22.816;2023-02-11T07:23:41;0.30;29.80
22923;DHT22;11627;51.322;22.816;2023-02-11T07:26:11;0.30;31.90
22923;DHT22;11627;51.322;22.816;2023-02-11T07:28:38;0.30;28.30
22923;DHT22;11627;51.322;22.816;2023-02-11T07:31:09;0.40;31.80
22923;DHT22;11627;51.322;22.816;2023-02-11T07:33:35;0.30;30.70
22923;DHT22;11627;51.322;22.816;2023-02-11T07:36:02;0.40;27.10
22923;DHT22;11627;51.322;22.816;2023-02-11T07:38:29;0.30;28.40
22923;DHT22;11627;51.322;22.816;2023-02-11T07:40:59;0.30;27.40
22923;DHT22;11627;51.322;22.816;2023-02-11T07:43:24;0.30;27.10
22923;DHT22;11627;51.322;22.816;2023-02-11T07:45:50;0.30;25.30
22923;DHT22;11627;51.322;22.816;2023-02-11T07:48:15;0.40;22.30
22923;DHT22;11627;51.322;22.816;2023-02-11T07:50:41;0.30;27.50
22923;DHT22;11627;51.322;22.816;2023-02-11T07:53:07;0.40;27.90
22923;DHT22;11627;51.322;22.816;2023-02-11T07:55:32;0.30;27.50
22923;DHT22;11627;51.322;22.816;2023-02-11T07:57:58;0.40;27.60
22923;DHT22;11627;51.322;22.816;2023-02-11T08:00:24;0.40;25.80
22923;DHT22;11627;51.322;22.816;2023-02-11T08:02:49;0.40;24.20
22923;DHT22;11627;51.322;22.816;2023-02-11T08:05:16;0.40;25.10
22923;DHT22;11627;51.322;22.816;2023-02-11T08:07:42;0.40;26.80
22923;DHT22;11627;51.322;22.816;2023-02-11T08:10:07;0.40;21.20
22923;DHT22;11627;51.322;22.816;2023-02-11T08:12:33;0.40;23.60
22923;DHT22;11627;51.322;22.816;2023-02-11T08:14:58;0.40;24.70
22923;DHT22;11627;51.322;22.816;2023-02-11T08:17:24;0.50;18.10
22923;DHT22;11627;51.322;22.816;2023-02-11T08:19:50;0.60;18.70
22923;DHT22;11627;51.322;22.816;2023-02-11T08:22:15;0.70;13.40
22923;DHT22;11627;51.322;22.816;2023-02-11T08:24:41;0.80;11.20
22923;DHT22;11627;51.322;22.816;2023-02-11T08:27:06;0.80;9.20
22923;DHT22;11627;51.322;22.816;2023-02-11T08:29:32;0.80;6.40
22923;DHT22;11627;51.322;22.816;2023-02-11T08:31:58;0.90;7.70
22923;DHT22;11627;51.322;22.816;2023-02-11T08:34:23;1.00;5.40
22923;DHT22;11627;51.322;22.816;2023-02-11T08:36:49;1.00;1.00
22923;DHT22;11627;51.322;22.816;2023-02-11T08:39:17;1.10;1.00
22923;DHT22;11627;51.322;22.816;2023-02-11T08:41:44;1.20;1.00
22923;DHT22;11627;51.322;22.816;2023-02-11T08:44:10;1.20;1.00
22923;DHT22;11627;51.322;22.816;2023-02-11T08:46:36;1.20;1.00
22923;DHT22;11627;51.322;22.816;2023-02-11T08:49:01;1.20;1.00
22923;DHT22;11627;51.322;22.816;2023-02-11T08:51:28;1.10;1.00
22923;DHT22;11627;51.322;22.816;2023-02-11T08:53:55;1.20;1.00
22923;DHT22;11627;51.322;22.816;2023-02-11T08:56:23;1.20;1.00
22923;DHT22;11627;51.322;22.816;2023-02-11T08:58:49;1.30;1.00
22923;DHT22;11627;51.322;22.816;2023-02-11T09:01:21;1.30;1.00
22923;DHT22;11627;51.322;22.816;2023-02-11T09:03:47;1.30;1.00
22923;DHT22;11627;51.322;22.816;2023-02-11T09:06:14;1.30;1.00
22923;DHT22;11627;51.322;22.816;2023-02-11T09:08:44;1.30;1.00
22923;DHT22;11627;51.322;22.816;2023-02-11T09:11:11;1.40;1.00
22923;DHT22;11627;51.322;22.816;2023-02-11T09:13:40;1.40;1.00
22923;DHT22;11627;51.322;22.816;2023-02-11T09:16:06;1.50;1.00
22923;DHT22;11627;51.322;22.816;2023-02-11T09:18:32;1.60;1.00
22923;DHT22;11627;51.322;22.816;2023-02-11T09:21:05;1.60;1.00
22923;DHT22;11627;51.322;22.816;2023-02-11T09:23:31;1.60;1.00
22923;DHT22;11627;51.322;22.816;2023-02-11T09:26:09;1.60;1.00
22923;DHT22;11627;51.322;22.816;2023-02-11T09:28:35;1.70;1.00
22923;DHT22;11627;51.322;22.816;2023-02-11T09:31:09;1.70;1.00
22923;DHT22;11627;51.322;22.816;2023-02-11T09:33:35;1.80;1.00
22923;DHT22;11627;51.322;22.816;2023-02-11T09:36:03;1.80;1.00
22923;DHT22;11627;51.322;22.816;2023-02-11T09:38:28;1.90;1.00
22923;DHT22;11627;51.322;22.816;2023-02-11T09:40:54;1.80;1.00
22923;DHT22;11627;51.322;22.816;2023-02-11T09:43:43;1.80;1.00
22923;DHT22;11627;51.322;22.816;2023-02-11T09:46:14;1.80;1.00
22923;DHT22;11627;51.322;22.816;2023-02-11T09:48:42;1.90;1.00
22923;DHT22;11627;51.322;22.816;2023-02-11T09:53:56;1.90;1.00
22923;DHT22;11627;51.322;22.816;2023-02-11T09:56:25;1.80;1.00
22923;DHT22;11627;51.322;22.816;2023-02-11T09:58:52;1.80;1.00
22923;DHT22;11627;51.322;22.816;2023-02-11T10:06:49;1.90;1.00
22923;DHT22;11627;51.322;22.816;2023-02-11T10:20:35;1.70;1.00
22923;DHT22;11627;51.322;22.816;2023-02-11T10:23:12;1.80;1.00
22923;DHT22;11627;51.322;22.816;2023-02-11T10:25:42;2.00;1.00
22923;DHT22;11627;51.322;22.816;2023-02-11T10:28:17;1.70;1.00
22923;DHT22;11627;51.322;22.816;2023-02-11T10:33:50;1.80;1.00
22923;DHT22;11627;51.322;22.816;2023-02-11T10:36:20;1.90;1.00
22923;DHT22;11627;51.322;22.816;2023-02-11T10:38:48;1.80;1.00
22923;DHT22;11627;51.322;22.816;2023-02-11T10:41:21;1.80;1.00
22923;DHT22;11627;51.322;22.816;2023-02-11T10:43:49;1.90;1.00
22923;DHT22;11627;51.322;22.816;2023-02-11T10:46:18;2.00;1.00
22923;DHT22;11627;51.322;22.816;2023-02-11T10:48:51;2.00;1.00
22923;DHT22;11627;51.322;22.816;2023-02-11T10:51:25;1.90;1.00
22923;DHT22;11627;51.322;22.816;2023-02-11T10:56:44;1.90;1.00
22923;DHT22;11627;51.322;22.816;2023-02-11T11:02:20;1.90;1.00
22923;DHT22;11627;51.322;22.816;2023-02-11T11:04:47;1.90;1.00
22923;DHT22;11627;51.322;22.816;2023-02-11T11:07:25;1.90;1.00
22923;DHT22;11627;51.322;22.816;2023-02-11T11:10:06;1.90;7.60
22923;DHT22;11627;51.322;22.816;2023-02-11T11:15:22;1.90;18.50
22923;DHT22;11627;51.322;22.816;2023-02-11T11:18:14;1.80;19.40
22923;DHT22;11627;51.322;22.816;2023-02-11T11:20:58;1.90;22.90
22923;DHT22;11627;51.322;22.816;2023-02-11T11:23:26;1.90;24.90
22923;DHT22;11627;51.322;22.816;2023-02-11T11:26:11;1.90;27.50
22923;DHT22;11627;51.322;22.816;2023-02-11T11:28:53;1.80;33.20
22923;DHT22;11627;51.322;22.816;2023-02-11T11:31:30;1.90;28.90
22923;DHT22;11627;51.322;22.816;2023-02-11T11:33:59;1.80;29.50
22923;DHT22;11627;51.322;22.816;2023-02-11T11:36:38;1.90;33.50
22923;DHT22;11627;51.322;22.816;2023-02-11T11:39:26;1.80;39.90
22923;DHT22;11627;51.322;22.816;2023-02-11T11:42:01;1.90;40.60
22923;DHT22;11627;51.322;22.816;2023-02-11T11:44:33;2.00;42.10
22923;DHT22;11627;51.322;22.816;2023-02-11T11:55:13;2.00;67.90
22923;DHT22;11627;51.322;22.816;2023-02-11T11:57:40;1.90;79.10
22923;DHT22;11627;51.322;22.816;2023-02-11T12:08:35;1.80;94.40
22923;DHT22;11627;51.322;22.816;2023-02-11T12:16:38;1.70;99.90
22923;DHT22;11627;51.322;22.816;2023-02-11T12:22:11;1.70;99.90
22923;DHT22;11627;51.322;22.816;2023-02-11T12:41:47;1.30;99.90
22923;DHT22;11627;51.322;22.816;2023-02-11T12:55:29;1.20;99.90
22923;DHT22;11627;51.322;22.816;2023-02-11T12:58:01;1.20;99.90
22923;DHT22;11627;51.322;22.816;2023-02-11T13:00:54;1.20;99.90
22923;DHT22;11627;51.322;22.816;2023-02-11T13:03:29;1.20;99.90
22923;DHT22;11627;51.322;22.816;2023-02-11T13:06:02;1.20;99.90
22923;DHT22;11627;51.322;22.816;2023-02-11T13:08:34;1.20;99.90
22923;DHT22;11627;51.322;22.816;2023-02-11T13:11:06;1.20;99.90
22923;DHT22;11627;51.322;22.816;2023-02-11T13:13:36;1.30;99.90
22923;DHT22;11627;51.322;22.816;2023-02-11T13:19:00;1.20;99.90
22923;DHT22;11627;51.322;22.816;2023-02-11T13:24:32;1.20;99.90
22923;DHT22;11627;51.322;22.816;2023-02-11T13:30:38;1.20;99.90
22923;DHT22;11627;51.322;22.816;2023-02-11T13:35:28;1.20;99.90
22923;DHT22;11627;51.322;22.816;2023-02-11T13:37:55;1.20;99.90
22923;DHT22;11627;51.322;22.816;2023-02-11T13:40:26;1.30;99.90
22923;DHT22;11627;51.322;22.816;2023-02-11T13:42:59;1.30;99.90
22923;DHT22;11627;51.322;22.816;2023-02-11T13:45:42;1.30;99.90
22923;DHT22;11627;51.322;22.816;2023-02-11T13:50:48;1.40;99.90
22923;DHT22;11627;51.322;22.816;2023-02-11T13:53:15;1.40;99.90
22923;DHT22;11627;51.322;22.816;2023-02-11T13:55:45;1.50;99.90
22923;DHT22;11627;51.322;22.816;2023-02-11T14:00:44;1.40;99.90
22923;DHT22;11627;51.322;22.816;2023-02-11T14:12:18;1.50;99.90
22923;DHT22;11627;51.322;22.816;2023-02-11T14:15:16;1.50;99.90
22923;DHT22;11627;51.322;22.816;2023-02-11T14:17:43;1.40;99.90
22923;DHT22;11627;51.322;22.816;2023-02-11T14:20:32;1.40;99.90
22923;DHT22;11627;51.322;22.816;2023-02-11T14:23:00;1.40;99.90
22923;DHT22;11627;51.322;22.816;2023-02-11T14:25:26;1.40;99.90
22923;DHT22;11627;51.322;22.816;2023-02-11T14:28:10;1.40;99.90
22923;DHT22;11627;51.322;22.816;2023-02-11T14:30:47;1.50;99.90
22923;DHT22;11627;51.322;22.816;2023-02-11T14:36:38;1.50;99.90
22923;DHT22;11627;51.322;22.816;2023-02-11T14:39:13;1.50;99.90
22923;DHT22;11627;51.322;22.816;2023-02-11T14:41:44;1.50;99.90
22923;DHT22;11627;51.322;22.816;2023-02-11T14:44:25;1.50;99.90
22923;DHT22;11627;51.322;22.816;2023-02-11T14:46:52;1.60;99.90
22923;DHT22;11627;51.322;22.816;2023-02-11T14:49:34;1.60;99.90
22923;DHT22;11627;51.322;22.816;2023-02-11T14:52:23;1.70;99.90
22923;DHT22;11627;51.322;22.816;2023-02-11T14:55:26;1.60;99.90
22923;DHT22;11627;51.322;22.816;2023-02-11T14:57:43;1.60;99.90
22923;DHT22;11627;51.322;22.816;2023-02-11T15:00:17;1.70;99.90
22923;DHT22;11627;51.322;22.816;2023-02-11T15:02:43;1.70;99.90
22923;DHT22;11627;51.322;22.816;2023-02-11T15:07:43;1.70;99.90
22923;DHT22;11627;51.322;22.816;2023-02-11T15:10:26;1.70;99.90
22923;DHT22;11627;51.322;22.816;2023-02-11T15:12:53;1.80;99.90
22923;DHT22;11627;51.322;22.816;2023-02-11T15:15:19;1.80;99.90
22923;DHT22;11627;51.322;22.816;2023-02-11T15:17:45;1.80;99.90
22923;DHT22;11627;51.322;22.816;2023-02-11T15:20:25;1.80;99.90
22923;DHT22;11627;51.322;22.816;2023-02-11T15:22:58;1.80;99.90
22923;DHT22;11627;51.322;22.816;2023-02-11T15:25:26;1.80;99.90
22923;DHT22;11627;51.322;22.816;2023-02-11T15:27:57;1.90;99.90
22923;DHT22;11627;51.322;22.816;2023-02-11T15:30:28;1.80;99.90
22923;DHT22;11627;51.322;22.816;2023-02-11T15:33:02;1.80;99.90
22923;DHT22;11627;51.322;22.816;2023-02-11T15:35:37;1.80;99.90
22923;DHT22;11627;51.322;22.816;2023-02-11T15:38:03;1.80;99.90
22923;DHT22;11627;51.322;22.816;2023-02-11T15:40:31;1.80;99.90
22923;DHT22;11627;51.322;22.816;2023-02-11T15:42:59;1.80;99.90
22923;DHT22;11627;51.322;22.816;2023-02-11T15:50:54;1.80;99.90
22923;DHT22;11627;51.322;22.816;2023-02-11T15:53:36;1.80;99.90
22923;DHT22;11627;51.322;22.816;2023-02-11T15:56:25;1.80;99.90
22923;DHT22;11627;51.322;22.816;2023-02-11T15:58:56;1.70;99.90
22923;DHT22;11627;51.322;22.816;2023-02-11T16:01:31;1.90;99.90
22923;DHT22;11627;51.322;22.816;2023-02-11T16:03:58;1.80;99.90
22923;DHT22;11627;51.322;22.816;2023-02-11T16:06:35;1.90;99.90
22923;DHT22;11627;51.322;22.816;2023-02-11T16:14:28;1.90;99.90
22923;DHT22;11627;51.322;22.816;2023-02-11T16:17:00;1.90;99.90
22923;DHT22;11627;51.322;22.816;2023-02-11T16:19:27;1.90;99.90
22923;DHT22;11627;51.322;22.816;2023-02-11T16:21:54;2.00;99.90
22923;DHT22;11627;51.322;22.816;2023-02-11T16:24:31;1.90;99.90
22923;DHT22;11627;51.322;22.816;2023-02-11T16:27:00;1.90;99.90
22923;DHT22;11627;51.322;22.816;2023-02-11T16:29:31;1.90;99.90
22923;DHT22;11627;51.322;22.816;2023-02-11T16:32:14;1.90;99.90
22923;DHT22;11627;51.322;22.816;2023-02-11T16:34:42;2.00;99.90
22923;DHT22;11627;51.322;22.816;2023-02-11T16:37:09;2.00;99.90
22923;DHT22;11627;51.322;22.816;2023-02-11T16:39:36;2.00;99.90
22923;DHT22;11627;51.322;22.816;2023-02-11T16:42:06;2.00;99.90
22923;DHT22;11627;51.322;22.816;2023-02-11T16:44:33;1.90;99.90
22923;DHT22;11627;51.322;22.816;2023-02-11T16:47:00;2.00;99.90
22923;DHT22;11627;51.322;22.816;2023-02-11T16:49:35;2.00;99.90
22923;DHT22;11627;51.322;22.816;2023-02-11T16:52:07;2.90;99.90
22923;DHT22;11627;51.322;22.816;2023-02-11T16:54:33;2.00;99.90
22923;DHT22;11627;51.322;22.816;2023-02-11T16:56:59;2.00;99.90
22923;DHT22;11627;51.322;22.816;2023-02-11T16:59:26;2.00;99.90
22923;DHT22;11627;51.322;22.816;2023-02-11T17:01:53;2.00;99.90
22923;DHT22;11627;51.322;22.816;2023-02-11T17:04:22;2.00;99.90
22923;DHT22;11627;51.322;22.816;2023-02-11T17:06:48;2.00;99.90
22923;DHT22;11627;51.322;22.816;2023-02-11T17:09:19;2.00;99.90
22923;DHT22;11627;51.322;22.816;2023-02-11T17:11:47;2.00;99.90
22923;DHT22;11627;51.322;22.816;2023-02-11T17:14:15;2.00;99.90
22923;DHT22;11627;51.322;22.816;2023-02-11T17:16:41;2.10;99.90
22923;DHT22;11627;51.322;22.816;2023-02-11T17:19:13;2.10;99.90
22923;DHT22;11627;51.322;22.816;2023-02-11T17:21:46;2.20;99.90
22923;DHT22;11627;51.322;22.816;2023-02-11T17:24:14;2.20;99.90
22923;DHT22;11627;51.322;22.816;2023-02-11T17:26:42;2.20;99.90
22923;DHT22;11627;51.322;22.816;2023-02-11T17:29:12;2.30;99.90
22923;DHT22;11627;51.322;22.816;2023-02-11T17:31:38;2.20;99.90
22923;DHT22;11627;51.322;22.816;2023-02-11T17:34:04;2.30;99.90
22923;DHT22;11627;51.322;22.816;2023-02-11T17:36:31;2.20;99.90
22923;DHT22;11627;51.322;22.816;2023-02-11T17:39:00;2.30;99.90
22923;DHT22;11627;51.322;22.816;2023-02-11T17:41:27;2.40;99.90
22923;DHT22;11627;51.322;22.816;2023-02-11T17:43:56;2.40;99.90
22923;DHT22;11627;51.322;22.816;2023-02-11T17:46:22;2.30;99.90
22923;DHT22;11627;51.322;22.816;2023-02-11T17:48:50;2.40;99.90
22923;DHT22;11627;51.322;22.816;2023-02-11T17:53:51;2.40;99.90
22923;DHT22;11627;51.322;22.816;2023-02-11T18:23:15;2.40;99.90
22923;DHT22;11627;51.322;22.816;2023-02-11T18:25:41;2.50;99.90
22923;DHT22;11627;51.322;22.816;2023-02-11T18:28:07;2.60;99.90
22923;DHT22;11627;51.322;22.816;2023-02-11T18:30:32;2.50;99.90
22923;DHT22;11627;51.322;22.816;2023-02-11T18:32:58;2.50;99.90
22923;DHT22;11627;51.322;22.816;2023-02-11T18:35:24;2.50;99.90
22923;DHT22;11627;51.322;22.816;2023-02-11T18:37:50;2.50;99.90
22923;DHT22;11627;51.322;22.816;2023-02-11T18:40:17;2.70;99.90
22923;DHT22;11627;51.322;22.816;2023-02-11T18:42:45;2.50;99.90
22923;DHT22;11627;51.322;22.816;2023-02-11T18:45:11;2.50;99.90